Time;durP1;ratioP1;P1;durP2;ratioP2;P2;SDS_P1;SDS_P2;PMS_P1;PMS_P2;Temp;Humidity;BMP_temperature;BMP_pressure;BME280_temperature;BME280_humidity;BME280_pressure;Samples;Min_cycle;Max_cycle;Signal;HPM_P1;HPM_P2
2023/05/19 00:01:21;;;;;;;8.88;6.70;;;;;;;15.83;100.00;101244.88;5071448;28;20098;-74
2023/05/19 00:03:51;;;;;;;8.65;6.60;;;;;;;16.05;100.00;101290.38;5071505;28;20041;-74
2023/05/19 00:06:21;;;;;;;8.50;6.57;;;;;;;15.91;100.00;101279.69;5069830;28;20033;-75
2023/05/19 00:08:48;;;;;;;14.23;7.30;;;;;;;15.92;100.00;101273.69;5053283;28;20099;-74
2023/05/19 00:11:14;;;;;;;9.38;7.68;;;;;;;15.87;100.00;101256.72;5070937;28;20037;-74
2023/05/19 00:13:40;;;;;;;10.40;7.53;;;;;;;15.92;100.00;101258.28;5071519;28;20033;-75
2023/05/19 00:16:05;;;;;;;10.05;7.88;;;;;;;15.68;100.00;101211.97;5053477;28;20411;-73
2023/05/19 00:18:32;;;;;;;8.90;8.00;;;;;;;16.37;100.00;101304.81;5070758;28;20033;-73
2023/05/19 00:20:57;;;;;;;9.80;7.97;;;;;;;15.88;100.00;101215.66;5071761;28;20081;-74
2023/05/19 00:23:23;;;;;;;12.57;8.43;;;;;;;16.43;100.00;101296.94;5071503;28;20036;-74
2023/05/19 00:25:48;;;;;;;10.05;7.88;;;;;;;16.25;100.00;101277.81;5053083;28;20037;-73
2023/05/19 00:28:14;;;;;;;11.30;8.20;;;;;;;15.99;100.00;101230.69;5070859;28;20082;-73
2023/05/19 00:30:39;;;;;;;10.32;8.02;;;;;;;15.91;100.00;101238.63;5071074;28;20029;-74
2023/05/19 00:33:05;;;;;;;10.70;8.05;;;;;;;15.89;100.00;101232.72;5053367;28;20039;-74
2023/05/19 00:35:30;;;;;;;11.85;8.00;;;;;;;16.11;100.00;101272.25;5053067;28;20123;-74
2023/05/19 00:37:56;;;;;;;11.70;8.10;;;;;;;15.79;100.00;101222.75;5075502;28;20016;-74
2023/05/19 00:40:23;;;;;;;9.20;8.25;;;;;;;15.97;100.00;101241.03;5074590;28;20036;-74
2023/05/19 00:42:48;;;;;;;11.25;8.40;;;;;;;15.95;100.00;101255.63;5075028;28;20035;-74
2023/05/19 00:45:14;;;;;;;12.88;8.57;;;;;;;15.93;100.00;101236.03;5074780;28;20469;-75
2023/05/19 00:47:39;;;;;;;9.77;8.45;;;;;;;16.12;100.00;101267.97;5075406;28;20056;-75
2023/05/19 00:50:05;;;;;;;12.02;8.35;;;;;;;16.29;100.00;101288.81;5057482;28;20039;-75
2023/05/19 00:52:36;;;;;;;11.43;8.88;;;;;;;16.31;100.00;101284.47;5075064;28;20033;-75
2023/05/19 00:55:02;;;;;;;11.07;8.57;;;;;;;16.24;100.00;101267.59;5075715;28;20024;-75
2023/05/19 00:57:28;;;;;;;11.45;8.75;;;;;;;16.36;100.00;101292.88;5056735;28;20422;-75
2023/05/19 00:59:53;;;;;;;11.10;8.80;;;;;;;16.28;100.00;101289.72;5075168;28;20051;-75
2023/05/19 01:02:19;;;;;;;9.30;8.30;;;;;;;16.24;100.00;101291.50;5074765;28;20075;-74
2023/05/19 01:04:45;;;;;;;12.02;8.25;;;;;;;16.36;100.00;101309.09;5057049;28;20036;-75
2023/05/19 01:07:11;;;;;;;11.25;8.00;;;;;;;16.03;100.00;101261.38;5074577;28;20040;-73
2023/05/19 01:09:36;;;;;;;10.13;8.13;;;;;;;15.92;100.00;101237.75;5056935;28;20075;-75
2023/05/19 01:12:02;;;;;;;11.50;8.25;;;;;;;16.18;100.00;101275.47;5074337;28;20032;-73
2023/05/19 01:14:29;;;;;;;10.18;8.30;;;;;;;16.08;100.00;101271.50;5056269;28;20039;-73
2023/05/19 01:17:06;;;;;;;13.07;8.77;;;;;;;16.34;100.00;101298.03;5074792;28;20063;-75
2023/05/19 01:19:56;;;;;;;9.35;8.07;;;;;;;16.35;100.00;101301.47;5074767;28;20025;-75
2023/05/19 01:22:59;;;;;;;12.13;8.82;;;;;;;16.33;100.00;101308.38;5074206;28;20351;-75
2023/05/19 01:25:52;;;;;;;11.90;8.85;;;;;;;16.10;100.00;101260.28;5074364;28;20031;-74
2023/05/19 01:28:36;;;;;;;13.63;8.68;;;;;;;16.51;100.00;101312.97;5074439;28;20112;-74
2023/05/19 01:31:04;;;;;;;12.98;8.25;;;;;;;16.38;100.00;101316.78;5074278;28;20024;-74
2023/05/19 01:33:32;;;;;;;11.38;8.75;;;;;;;16.02;100.00;101258.84;5074207;28;20021;-75
2023/05/19 01:36:02;;;;;;;10.18;8.52;;;;;;;16.38;100.00;101311.66;5073520;28;20036;-75
2023/05/19 01:38:28;;;;;;;11.20;8.75;;;;;;;16.25;100.00;101300.06;5074153;28;20107;-75
2023/05/19 01:40:56;;;;;;;9.40;8.25;;;;;;;15.95;100.00;101247.06;5073832;28;20478;-74
2023/05/19 01:43:24;;;;;;;9.45;8.55;;;;;;;15.98;100.00;101259.81;5074020;28;20414;-75
2023/05/19 01:45:51;;;;;;;11.07;9.07;;;;;;;15.96;100.00;101243.63;5074047;28;20139;-75
2023/05/19 01:48:17;;;;;;;15.30;9.30;;;;;;;15.97;100.00;101263.25;5072579;28;20020;-75
2023/05/19 01:50:42;;;;;;;12.90;9.85;;;;;;;16.29;100.00;101293.94;5073790;28;20032;-75
2023/05/19 01:53:09;;;;;;;11.77;9.55;;;;;;;16.00;100.00;101258.91;5073730;28;20032;-75
2023/05/19 01:55:41;;;;;;;13.25;9.52;;;;;;;16.01;100.00;101286.22;5074024;28;20098;-75
2023/05/19 01:58:21;;;;;;;14.13;9.93;;;;;;;16.25;100.00;101307.75;5074050;28;20086;-76
2023/05/19 02:00:58;;;;;;;11.07;9.52;;;;;;;16.14;100.00;101320.06;5074070;28;20043;-75
2023/05/19 02:03:26;;;;;;;10.95;9.77;;;;;;;16.25;100.00;101329.13;5074198;28;20051;-75
2023/05/19 02:06:18;;;;;;;12.70;9.68;;;;;;;16.25;100.00;101330.84;5074384;28;20056;-76
2023/05/19 02:08:53;;;;;;;13.35;10.32;;;;;;;16.15;100.00;101335.41;5056849;28;20028;-76
2023/05/19 02:11:40;;;;;;;11.68;10.00;;;;;;;15.77;100.00;101263.03;5073966;28;20081;-75
2023/05/19 02:14:40;;;;;;;13.52;9.95;;;;;;;16.12;100.00;101332.94;5056019;28;20036;-75
2023/05/19 02:17:07;;;;;;;12.80;9.50;;;;;;;15.78;100.00;101269.81;5059222;28;20039;-75
2023/05/19 02:19:38;;;;;;;15.57;9.98;;;;;;;15.92;100.00;101324.97;5073885;28;20039;-75
2023/05/19 02:22:04;;;;;;;12.10;10.68;;;;;;;15.99;100.00;101358.97;5073533;28;20044;-75
2023/05/19 02:24:30;;;;;;;14.57;10.60;;;;;;;16.02;100.00;101364.88;5073327;28;20044;-75
2023/05/19 02:26:55;;;;;;;13.15;10.63;;;;;;;15.41;100.00;101263.09;5073626;28;20167;-75
2023/05/19 02:29:21;;;;;;;17.33;10.93;;;;;;;15.56;100.00;101292.66;5073852;28;20052;-75
2023/05/19 02:31:47;;;;;;;11.85;10.32;;;;;;;15.93;100.00;101354.00;5073142;28;20170;-74
2023/05/19 02:34:12;;;;;;;11.32;9.80;;;;;;;16.00;100.00;101365.81;5055514;28;20028;-75
2023/05/19 02:36:43;;;;;;;12.27;10.05;;;;;;;15.69;100.00;101329.88;5073672;28;20032;-76
2023/05/19 02:39:12;;;;;;;12.80;10.32;;;;;;;15.88;100.00;101377.25;5073745;28;20058;-74
2023/05/19 02:41:38;;;;;;;11.73;10.40;;;;;;;15.89;100.00;101358.41;5055816;28;20123;-76
2023/05/19 02:44:04;;;;;;;11.55;9.77;;;;;;;15.96;100.00;101366.78;5055308;28;20063;-76
2023/05/19 02:46:29;;;;;;;14.27;9.40;;;;;;;15.92;100.00;101372.88;5073779;28;20124;-75
2023/05/19 02:48:55;;;;;;;11.50;10.15;;;;;;;15.44;100.00;101306.66;5072695;28;20043;-75
2023/05/19 02:51:20;;;;;;;11.48;10.02;;;;;;;15.53;100.00;101320.91;5072291;28;20033;-76
2023/05/19 02:53:45;;;;;;;13.07;10.30;;;;;;;15.91;100.00;101389.97;5073539;28;20024;-76
2023/05/19 02:56:11;;;;;;;18.38;10.00;;;;;;;15.61;100.00;101322.41;5073105;28;20040;-76
2023/05/19 02:58:41;;;;;;;12.20;9.10;;;;;;;15.94;100.00;101376.25;5072919;28;20417;-75
2023/05/19 03:01:07;;;;;;;10.85;9.73;;;;;;;15.35;100.00;101286.34;5073200;28;20021;-74
2023/05/19 03:03:34;;;;;;;12.07;9.88;;;;;;;15.41;100.00;101298.16;5072454;28;20052;-75
2023/05/19 03:06:00;;;;;;;16.60;10.23;;;;;;;15.78;100.00;101380.94;5054823;28;20032;-75
2023/05/19 03:08:27;;;;;;;11.68;9.85;;;;;;;15.66;100.00;101349.66;5072584;28;20016;-74
2023/05/19 03:10:52;;;;;;;12.82;9.75;;;;;;;15.50;100.00;101332.13;5072237;28;20029;-74
2023/05/19 03:13:17;;;;;;;12.40;9.95;;;;;;;15.39;100.00;101317.88;5070689;28;20033;-74
2023/05/19 03:15:43;;;;;;;12.18;10.30;;;;;;;15.30;100.00;101306.13;5054391;28;20021;-75
2023/05/19 03:18:10;;;;;;;14.25;10.45;;;;;;;15.74;100.00;101366.53;5072547;28;20032;-75
2023/05/19 03:20:37;;;;;;;11.75;9.77;;;;;;;15.48;100.00;101327.91;5054199;28;20033;-74
2023/05/19 03:23:02;;;;;;;13.55;10.10;;;;;;;16.05;100.00;101390.44;5072025;28;20492;-73
2023/05/19 03:25:28;;;;;;;14.15;9.95;;;;;;;15.84;100.00;101375.66;5071745;28;20131;-74
2023/05/19 03:27:54;;;;;;;12.93;10.02;;;;;;;15.62;100.00;101354.03;5072301;28;20032;-74
2023/05/19 03:30:19;;;;;;;11.98;10.35;;;;;;;15.68;100.00;101363.28;5053815;28;20193;-73
2023/05/19 03:32:45;;;;;;;14.57;10.52;;;;;;;15.64;100.00;101339.44;5071706;28;20123;-73
2023/05/19 03:35:10;;;;;;;10.90;9.23;;;;;;;15.63;100.00;101353.13;5071885;28;20036;-74
2023/05/19 03:37:36;;;;;;;12.85;9.63;;;;;;;15.18;100.00;101283.38;5072233;28;20056;-74
2023/05/19 03:40:01;;;;;;;11.07;9.95;;;;;;;16.07;100.00;101426.31;5053726;28;20028;-75
2023/05/19 03:42:26;;;;;;;11.55;9.73;;;;;;;15.85;100.00;101376.47;5072025;28;20471;-76
2023/05/19 03:44:52;;;;;;;11.00;9.82;;;;;;;16.03;100.00;101437.53;5072624;28;20024;-76
2023/05/19 03:47:17;;;;;;;11.65;9.35;;;;;;;15.97;100.00;101424.88;5070981;28;20040;-76
2023/05/19 03:49:43;;;;;;;15.15;10.23;;;;;;;15.38;100.00;101334.13;5063727;28;20040;-77
2023/05/19 03:52:08;;;;;;;12.30;9.77;;;;;;;15.56;100.00;101379.81;5072026;28;20517;-76
2023/05/19 03:54:34;;;;;;;10.60;9.50;;;;;;;15.90;100.00;101438.75;5071575;28;20032;-75
2023/05/19 03:57:01;;;;;;;11.93;9.50;;;;;;;15.92;100.00;101448.13;5072015;28;20486;-76
2023/05/19 03:59:26;;;;;;;10.80;9.05;;;;;;;15.89;100.00;101448.19;5054133;28;20124;-76
2023/05/19 04:01:52;;;;;;;12.65;9.27;;;;;;;15.95;100.00;101426.66;5072157;28;20040;-74
2023/05/19 04:04:17;;;;;;;17.20;11.82;;;;;;;16.02;100.00;101447.00;5053586;28;20098;-77
2023/05/19 04:06:42;;;;;;;14.45;10.25;;;;;;;16.03;100.00;101425.56;5071920;28;20024;-75
2023/05/19 04:09:13;;;;;;;13.13;9.23;;;;;;;15.60;100.00;101341.25;5070991;28;20555;-75
2023/05/19 04:11:39;;;;;;;12.55;9.85;;;;;;;16.05;100.00;101436.63;5070895;28;20036;-78
2023/05/19 04:14:05;;;;;;;12.02;9.40;;;;;;;15.79;100.00;101403.13;5071879;28;20048;-74
2023/05/19 04:16:31;;;;;;;10.52;8.93;;;;;;;15.94;100.00;101407.03;5071813;28;20032;-75
2023/05/19 04:18:57;;;;;;;10.73;8.55;;;;;;;16.21;100.00;101429.34;5054327;28;20024;-77
2023/05/19 04:21:22;;;;;;;10.32;8.80;;;;;;;16.29;100.00;101437.69;5071076;28;20028;-77
2023/05/19 04:23:47;;;;;;;10.50;8.80;;;;;;;15.81;100.00;101341.53;5054072;28;20207;-76
2023/05/19 04:26:18;;;;;;;12.50;8.88;;;;;;;16.46;100.00;101438.88;5071988;28;20063;-77
2023/05/19 04:28:43;;;;;;;10.82;9.23;;;;;;;16.36;100.00;101421.25;5050452;28;20043;-77
2023/05/19 04:31:12;;;;;;;11.70;8.48;;;;;;;16.05;100.00;101371.63;5052270;28;20025;-78
2023/05/19 04:33:39;;;;;;;11.45;8.60;;;;;;;16.08;100.00;101359.59;5051773;28;20036;-76
2023/05/19 04:36:07;;;;;;;9.98;8.40;;;;;;;16.47;100.00;101429.47;5051433;28;20565;-75
2023/05/19 04:38:33;;;;;;;9.02;8.07;;;;;;;16.52;100.00;101409.66;5055989;28;20048;-76
2023/05/19 04:41:00;;;;;;;11.13;8.65;;;;;;;16.69;100.00;101422.84;5053107;28;20029;-75
2023/05/19 04:43:27;;;;;;;10.52;8.88;;;;;;;16.85;100.00;101406.09;5071564;28;20032;-76
2023/05/19 04:45:53;;;;;;;11.13;8.60;;;;;;;16.70;100.00;101367.19;5071616;28;20035;-78
2023/05/19 04:48:20;;;;;;;10.95;8.32;;;;;;;16.56;100.00;101330.81;5052207;28;20044;-75
2023/05/19 04:50:47;;;;;;;11.88;8.25;;;;;;;17.06;100.00;101384.00;5053707;28;20032;-76
2023/05/19 04:53:13;;;;;;;11.35;8.82;;;;;;;17.20;100.00;101422.97;5051313;28;20032;-76
2023/05/19 04:55:39;;;;;;;14.70;8.32;;;;;;;17.30;100.00;101426.91;5051155;28;20029;-76
2023/05/19 04:58:05;;;;;;;11.55;8.25;;;;;;;17.43;100.00;101409.38;5050018;28;20033;-76
2023/05/19 05:00:31;;;;;;;10.23;8.05;;;;;;;17.25;100.00;101346.53;5051216;28;20024;-76
2023/05/19 05:02:56;;;;;;;11.13;8.18;;;;;;;17.33;100.00;101363.38;5050355;28;20064;-76
2023/05/19 05:05:22;;;;;;;11.43;8.13;;;;;;;17.85;100.00;101397.63;5050458;28;20084;-75
2023/05/19 05:07:48;;;;;;;11.63;7.88;;;;;;;17.99;100.00;101400.56;5050949;28;20553;-75
2023/05/19 05:10:14;;;;;;;8.80;7.90;;;;;;;17.71;100.00;101410.97;5050942;28;20036;-76
2023/05/19 05:12:41;;;;;;;11.73;8.18;;;;;;;17.87;100.00;101403.56;5050693;28;20479;-76
2023/05/19 05:15:07;;;;;;;14.20;8.50;;;;;;;17.39;100.00;101290.31;5051246;28;20465;-76
2023/05/19 05:17:34;;;;;;;10.38;8.65;;;;;;;17.94;100.00;101364.72;5050865;28;20041;-76
2023/05/19 05:20:00;;;;;;;11.85;8.32;;;;;;;18.23;100.00;101385.97;5051098;28;20519;-76
2023/05/19 05:22:26;;;;;;;11.40;8.55;;;;;;;18.14;100.00;101406.00;5053022;28;20040;-76
2023/05/19 05:24:52;;;;;;;12.95;8.80;;;;;;;18.00;100.00;101333.63;5055737;28;20037;-75
2023/05/19 05:27:17;;;;;;;13.82;8.80;;;;;;;18.28;100.00;101363.47;5054833;28;20037;-75
2023/05/19 05:29:42;;;;;;;9.80;8.80;;;;;;;18.21;100.00;101386.03;5055463;28;20029;-76
2023/05/19 05:32:08;;;;;;;12.55;8.55;;;;;;;18.35;100.00;101399.25;5054933;28;20075;-75
2023/05/19 05:34:34;;;;;;;12.07;9.20;;;;;;;18.44;100.00;101395.53;5055170;28;20093;-76
2023/05/19 05:37:00;;;;;;;13.73;9.30;;;;;;;18.51;100.00;101389.22;5055038;28;20132;-76
2023/05/19 05:39:26;;;;;;;13.30;10.02;;;;;;;18.42;100.00;101345.78;5054552;28;20028;-75
2023/05/19 05:41:52;;;;;;;14.32;10.70;;;;;;;18.98;100.00;101380.47;5036320;28;20068;-74
2023/05/19 05:44:17;;;;;;;17.80;11.00;;;;;;;19.13;100.00;101379.88;5054660;28;20025;-73
2023/05/19 05:46:43;;;;;;;15.55;10.68;;;;;;;19.21;100.00;101413.09;5054850;28;20475;-76
2023/05/19 05:49:09;;;;;;;16.90;11.10;;;;;;;19.18;100.00;101352.16;5066649;28;20078;-75
2023/05/19 05:51:35;;;;;;;16.83;11.52;;;;;;;19.47;100.00;101403.41;5074428;28;20029;-75
2023/05/19 05:54:01;;;;;;;15.55;11.00;;;;;;;19.80;100.00;101394.25;5056127;28;20102;-76
2023/05/19 05:56:27;;;;;;;14.63;11.52;;;;;;;19.59;100.00;101335.78;5074456;28;20031;-76
2023/05/19 05:58:52;;;;;;;13.57;10.85;;;;;;;19.76;100.00;101403.03;5074259;28;20032;-75
2023/05/19 06:01:19;;;;;;;13.13;10.93;;;;;;;19.26;100.00;101301.09;5056140;28;20032;-75
2023/05/19 06:03:45;;;;;;;13.88;11.30;;;;;;;19.71;100.00;101393.78;5055513;28;20537;-75
2023/05/19 06:06:11;;;;;;;14.27;10.63;;;;;;;19.54;100.00;101334.31;5073274;28;20025;-75
2023/05/19 06:08:36;;;;;;;14.63;11.10;;;;;;;19.34;100.00;101342.06;5074009;28;20027;-76
2023/05/19 06:11:07;;;;;;;12.48;11.18;;;;;;;19.84;100.00;101389.78;5073191;28;20154;-76
2023/05/19 06:13:34;;;;;;;18.02;11.45;;;;;;;19.43;100.00;101332.19;5073390;28;20052;-73
2023/05/19 06:16:00;;;;;;;15.40;11.27;;;;;;;19.65;100.00;101356.19;5073817;28;20037;-75
2023/05/19 06:18:25;;;;;;;15.77;11.15;;;;;;;20.06;100.00;101395.69;5055792;28;20025;-74
2023/05/19 06:20:51;;;;;;;15.32;11.65;;;;;;;19.99;100.00;101349.53;5074423;28;20044;-74
2023/05/19 06:23:16;;;;;;;17.38;11.63;;;;;;;19.81;100.00;101346.03;5073321;28;20411;-74
2023/05/19 06:25:41;;;;;;;15.95;11.27;;;;;;;20.14;100.00;101397.94;5073504;28;20037;-74
2023/05/19 06:28:07;;;;;;;15.02;11.32;;;;;;;19.79;100.00;101355.56;5072877;28;20060;-74
2023/05/19 06:30:32;;;;;;;15.32;11.70;;;;;;;20.07;100.00;101371.53;5055251;28;20028;-73
2023/05/19 06:32:58;;;;;;;15.75;11.13;;;;;;;20.52;100.00;101384.97;5072615;28;20098;-74
2023/05/19 06:35:23;;;;;;;17.15;11.10;;;;;;;21.36;100.00;101337.78;5072576;28;20036;-74
2023/05/19 06:37:48;;;;;;;13.50;11.13;;;;;;;20.65;100.00;101297.34;5072871;28;20028;-74
2023/05/19 06:40:14;;;;;;;15.23;11.75;;;;;;;20.58;100.00;101324.41;5055274;28;20034;-74
2023/05/19 06:42:39;;;;;;;16.05;10.68;;;;;;;21.37;100.00;101386.06;5073262;28;20445;-74
2023/05/19 06:45:05;;;;;;;16.35;12.10;;;;;;;21.48;100.00;101381.16;5073007;28;20098;-74
2023/05/19 06:47:31;;;;;;;16.88;11.52;;;;;;;21.07;100.00;101328.06;5072295;28;20033;-74
2023/05/19 06:49:56;;;;;;;16.83;11.05;;;;;;;21.26;100.00;101394.34;5072818;28;20093;-74
2023/05/19 06:52:24;;;;;;;15.13;11.70;;;;;;;21.06;100.00;101336.72;5073460;28;20039;-74
2023/05/19 06:54:49;;;;;;;13.63;11.25;;;;;;;21.69;100.00;101393.00;5073386;28;20040;-74
2023/05/19 06:57:15;;;;;;;15.48;11.05;;;;;;;21.22;100.00;101293.66;5072935;28;20040;-74
2023/05/19 06:59:42;;;;;;;16.27;11.38;;;;;;;21.35;100.00;101387.88;5055484;28;20479;-74
2023/05/19 07:02:08;;;;;;;17.17;12.20;;;;;;;21.51;100.00;101368.09;5073233;28;20044;-73
2023/05/19 07:04:33;;;;;;;15.82;11.50;;;;;;;20.98;100.00;101331.91;5073214;28;20043;-75
2023/05/19 07:06:59;;;;;;;17.38;11.13;;;;;;;21.33;100.00;101394.88;5072404;28;20033;-74
2023/05/19 07:09:25;;;;;;;14.05;11.00;;;;;;;21.13;100.00;101335.53;5072776;28;20040;-74
2023/05/19 07:11:50;;;;;;;16.10;11.20;;;;;;;21.56;100.00;101384.22;5072522;28;20082;-76
2023/05/19 07:14:15;;;;;;;12.85;10.48;;;;;;;21.13;100.00;101421.75;5055085;28;20502;-74
2023/05/19 07:16:41;;;;;;;12.15;10.70;;;;;;;21.27;100.00;101476.22;5054747;28;20025;-74
2023/05/19 07:19:06;;;;;;;12.32;10.68;;;;;;;21.28;100.00;101609.88;5072274;28;20032;-74
2023/05/19 07:21:32;;;;;;;14.10;11.02;;;;;;;21.29;100.00;101684.00;5072402;28;20411;-74
2023/05/19 07:23:57;;;;;;;16.70;10.93;;;;;;;22.46;100.00;101683.66;5072784;28;20032;-74
2023/05/19 07:26:22;;;;;;;15.82;10.32;;;;;;;22.84;100.00;101630.72;5072046;28;20031;-74
2023/05/19 07:28:48;;;;;;;13.85;10.40;;;;;;;23.05;100.00;101498.06;5072893;28;20094;-74
2023/05/19 07:31:13;;;;;;;16.73;9.80;;;;;;;22.94;100.00;101407.00;5072338;28;20062;-73
2023/05/19 07:33:39;;;;;;;15.52;10.00;;;;;;;22.06;100.00;101319.44;5054306;28;20028;-74
2023/05/19 07:36:05;;;;;;;15.20;9.52;;;;;;;22.79;100.00;101317.06;5072276;28;20052;-74
2023/05/19 07:38:33;;;;;;;15.10;10.07;;;;;;;22.70;100.00;101149.00;5071931;28;20032;-72
2023/05/19 07:40:59;;;;;;;15.07;9.70;;;;;;;22.81;100.00;101086.97;5071888;28;20117;-74
2023/05/19 07:43:24;;;;;;;13.55;9.10;;;;;;;22.91;100.00;101137.34;5053512;28;20062;-73
2023/05/19 07:45:52;;;;;;;11.15;9.27;;;;;;;23.01;100.00;101096.13;5070431;28;20032;-75
2023/05/19 07:48:20;;;;;;;11.52;9.38;;;;;;;23.10;100.00;101080.81;5069742;28;20495;-74
2023/05/19 07:50:46;;;;;;;10.63;9.10;;;;;;;23.10;100.00;101105.91;5071751;28;20406;-74
2023/05/19 07:53:11;;;;;;;10.88;8.90;;;;;;;22.65;100.00;101104.38;5071404;28;20028;-72
2023/05/19 07:55:36;;;;;;;16.90;9.68;;;;;;;23.19;100.00;101100.97;5071436;28;20035;-73
2023/05/19 07:58:02;;;;;;;10.35;9.07;;;;;;;23.47;100.00;100910.59;5070767;28;20089;-72
2023/05/19 08:00:27;;;;;;;15.70;9.05;;;;;;;23.28;100.00;100747.41;5070889;28;20109;-72
2023/05/19 08:02:53;;;;;;;14.55;9.30;;;;;;;23.38;100.00;100648.16;5040134;28;20061;-72
2023/05/19 08:05:18;;;;;;;10.75;9.15;;;;;;;23.04;100.00;100515.56;5031689;28;20108;-73
2023/05/19 08:07:44;;;;;;;12.77;9.32;;;;;;;23.09;100.00;100308.50;5031478;28;20057;-73
2023/05/19 08:10:09;;;;;;;13.45;8.98;;;;;;;22.93;100.00;100239.72;5030519;28;20033;-73
2023/05/19 08:12:34;;;;;;;12.57;8.52;;;;;;;22.97;100.00;100239.38;5030817;28;20107;-74
2023/05/19 08:15:00;;;;;;;11.63;8.90;;;;;;;22.93;100.00;100175.69;5030304;28;20484;-73
2023/05/19 08:17:25;;;;;;;12.27;9.10;;;;;;;22.78;100.00;100145.72;5029849;28;20455;-72
2023/05/19 08:19:52;;;;;;;9.82;8.13;;;;;;;22.83;100.00;100098.72;5030164;28;20030;-74
2023/05/19 08:22:17;;;;;;;10.27;8.82;;;;;;;23.28;100.00;100084.75;5031455;28;20037;-73
2023/05/19 08:24:43;;;;;;;13.35;9.60;;;;;;;23.50;100.00;100139.25;5030471;28;20034;-74
2023/05/19 08:27:08;;;;;;;11.50;8.80;;;;;;;22.91;100.00;100086.81;5030436;28;20021;-73
2023/05/19 08:29:35;;;;;;;12.70;8.75;;;;;;;23.90;100.00;100127.38;5030289;28;20025;-74
2023/05/19 08:32:01;;;;;;;13.45;9.07;;;;;;;23.68;100.00;100139.56;5031493;28;20025;-73
2023/05/19 08:34:27;;;;;;;11.68;8.70;;;;;;;23.61;100.00;100247.47;5029930;28;20033;-73
2023/05/19 08:36:52;;;;;;;12.80;9.32;;;;;;;23.60;100.00;100406.81;5031457;28;20121;-72
2023/05/19 08:39:22;;;;;;;15.40;9.43;;;;;;;23.57;100.00;100446.78;5031072;28;20101;-73
2023/05/19 08:41:48;;;;;;;12.23;8.48;;;;;;;23.50;100.00;100449.97;5031221;28;20119;-72
2023/05/19 08:44:14;;;;;;;10.05;8.93;;;;;;;23.78;100.00;100549.13;5030827;28;20467;-72
2023/05/19 08:46:40;;;;;;;12.98;9.07;;;;;;;23.73;100.00;100540.81;5030941;28;20041;-73
2023/05/19 08:49:13;;;;;;;13.68;8.85;;;;;;;23.71;100.00;100593.84;5031262;28;20033;-72
2023/05/19 08:51:48;;;;;;;15.65;9.00;;;;;;;24.40;100.00;100710.88;5029484;28;20085;-72
2023/05/19 08:54:14;;;;;;;10.02;9.02;;;;;;;23.92;100.00;100872.88;5029749;28;20061;-72
2023/05/19 08:56:43;;;;;;;10.50;8.73;;;;;;;24.12;100.00;100978.09;5030321;28;20032;-72
2023/05/19 08:59:09;;;;;;;11.40;8.55;;;;;;;24.21;100.00;100887.31;5033238;28;20029;-74
2023/05/19 09:01:36;;;;;;;13.07;8.50;;;;;;;24.17;100.00;100768.88;5035132;28;20512;-72
2023/05/19 09:04:02;;;;;;;12.00;8.75;;;;;;;24.59;100.00;100736.34;5073183;28;20080;-72
2023/05/19 09:06:31;;;;;;;13.20;8.70;;;;;;;23.99;100.00;100658.44;5074797;28;20028;-72
2023/05/19 09:08:56;;;;;;;12.73;8.75;;;;;;;24.60;100.00;100610.56;5074607;28;20032;-72
2023/05/19 09:11:22;;;;;;;10.88;9.20;;;;;;;24.91;100.00;100556.09;5074270;28;20028;-72
2023/05/19 09:13:48;;;;;;;15.18;8.85;;;;;;;24.63;100.00;100379.66;5074453;28;20445;-72
2023/05/19 09:16:14;;;;;;;10.07;8.93;;;;;;;25.09;100.00;100105.28;5056742;28;20050;-73
2023/05/19 09:18:52;;;;;;;15.23;8.85;;;;;;;24.36;100.00;99637.53;5074280;28;20031;-74
2023/05/19 09:21:17;;;;;;;9.90;8.63;;;;;;;24.55;100.00;99632.31;5074577;28;20047;-72
2023/05/19 09:23:46;;;;;;;12.23;8.77;;;;;;;23.83;100.00;99626.69;5074124;28;20037;-72
2023/05/19 09:26:14;;;;;;;11.75;8.82;;;;;;;24.45;100.00;99733.72;5055936;28;20037;-72
2023/05/19 09:28:39;;;;;;;12.60;9.40;;;;;;;24.86;100.00;99782.88;5073894;28;20071;-72
2023/05/19 09:31:07;;;;;;;9.52;8.52;;;;;;;25.31;100.00;99839.53;5056524;28;20482;-73
2023/05/19 09:33:36;;;;;;;12.35;8.57;;;;;;;24.90;100.00;99911.72;5074080;28;20040;-73
2023/05/19 09:36:04;;;;;;;10.02;8.70;;;;;;;24.57;100.00;99971.03;5063588;28;20472;-72
2023/05/19 09:38:30;;;;;;;12.77;9.15;;;;;;;24.92;100.00;100149.19;5054205;28;20090;-75
2023/05/19 09:40:57;;;;;;;13.77;8.98;;;;;;;24.70;100.00;100190.13;5036483;28;20033;-76
2023/05/19 09:43:23;;;;;;;13.00;9.40;;;;;;;24.13;100.00;100106.53;5054185;28;20033;-73
2023/05/19 09:45:54;;;;;;;12.40;9.27;;;;;;;24.99;100.00;100170.31;5053458;28;20040;-74
2023/05/19 09:48:20;;;;;;;13.68;9.30;;;;;;;25.25;100.00;100218.41;5036509;28;20029;-73
2023/05/19 09:50:47;;;;;;;12.77;8.63;;;;;;;25.60;100.00;100186.75;5055646;28;20380;-73
2023/05/19 09:53:13;;;;;;;12.02;8.70;;;;;;;25.36;100.00;100248.72;5060643;28;20037;-74
2023/05/19 09:55:40;;;;;;;12.75;8.95;;;;;;;25.45;100.00;100363.38;5053228;28;20029;-74
2023/05/19 09:58:07;;;;;;;12.32;8.70;;;;;;;24.69;100.00;100370.53;5053381;28;20127;-74
2023/05/19 10:00:33;;;;;;;16.30;9.80;;;;;;;25.37;100.00;100503.81;5032995;28;20068;-73
2023/05/19 10:02:59;;;;;;;12.77;9.15;;;;;;;25.10;100.00;100586.69;5053063;28;20072;-73
2023/05/19 10:05:26;;;;;;;13.65;9.43;;;;;;;24.90;100.00;100647.25;5051329;28;20064;-72
2023/05/19 10:07:53;;;;;;;12.77;9.05;;;;;;;25.46;100.00;100724.47;5052195;28;20111;-72
2023/05/19 10:10:21;;;;;;;10.50;8.98;;;;;;;25.27;100.00;100676.50;5034603;28;20036;-71
2023/05/19 10:12:47;;;;;;;13.38;10.00;;;;;;;25.26;100.00;100615.78;5051525;28;20033;-71
2023/05/19 10:15:17;;;;;;;15.05;10.60;;;;;;;25.02;100.00;100417.28;5052250;28;20511;-72
2023/05/19 10:17:43;;;;;;;13.52;9.52;;;;;;;24.61;100.00;100261.06;5052438;28;20025;-72
2023/05/19 10:20:14;;;;;;;11.85;9.90;;;;;;;24.60;100.00;100363.47;5052461;28;20078;-71
2023/05/19 10:22:44;;;;;;;13.73;10.02;;;;;;;25.07;100.00;100498.44;5052276;28;20029;-72
2023/05/19 10:25:15;;;;;;;10.95;9.85;;;;;;;25.06;100.00;100569.66;5034563;28;20123;-71
2023/05/19 10:27:45;;;;;;;11.38;9.70;;;;;;;25.20;100.00;100543.38;5052436;28;20025;-71
2023/05/19 10:30:24;;;;;;;11.10;9.90;;;;;;;25.37;100.00;100602.75;5052808;28;20028;-72
2023/05/19 10:32:51;;;;;;;14.02;10.00;;;;;;;25.70;100.00;100620.09;5052491;28;20029;-71
2023/05/19 10:35:41;;;;;;;14.20;10.30;;;;;;;26.36;100.00;100642.50;5052252;28;20104;-71
2023/05/19 10:38:32;;;;;;;14.35;10.18;;;;;;;25.96;100.00;100618.00;5052586;28;20045;-72
2023/05/19 10:41:09;;;;;;;11.48;10.20;;;;;;;25.75;100.00;100626.59;5052328;28;20487;-72
2023/05/19 10:43:53;;;;;;;15.57;10.13;;;;;;;25.41;100.00;100553.88;5052790;28;20111;-72
2023/05/19 10:46:22;;;;;;;12.75;9.77;;;;;;;25.27;100.00;100567.97;5052645;28;20082;-72
2023/05/19 10:48:48;;;;;;;19.67;10.35;;;;;;;24.57;100.00;100551.78;5051267;28;20025;-72
2023/05/19 10:51:14;;;;;;;15.65;10.23;;;;;;;24.79;100.00;100561.41;5052386;28;20036;-72
2023/05/19 10:53:45;;;;;;;11.77;10.30;;;;;;;24.85;100.00;100613.81;5034494;28;20029;-70
2023/05/19 10:56:11;;;;;;;12.77;10.43;;;;;;;25.09;100.00;100636.28;5034560;28;20087;-71
2023/05/19 10:58:42;;;;;;;13.60;10.40;;;;;;;25.72;100.00;100579.13;5034499;28;20094;-72
2023/05/19 11:01:12;;;;;;;16.05;11.38;;;;;;;25.19;100.00;100483.63;5052310;28;20028;-72
2023/05/19 11:03:52;;;;;;;16.08;10.93;;;;;;;25.42;100.00;100472.19;5052187;28;20147;-72
2023/05/19 11:06:28;;;;;;;13.27;10.82;;;;;;;25.15;100.00;100423.16;5051667;28;20033;-72
2023/05/19 11:09:00;;;;;;;11.57;10.38;;;;;;;25.54;100.00;100487.66;5052246;28;20441;-72